sensor_id;sensor_type;location;lat;lon;timestamp;temperature;humidity
36416;DHT22;22447;44.530;18.620;2024-02-26T00:01:44;8.10;99.90
36416;DHT22;22447;44.530;18.620;2024-02-26T00:04:11;8.10;99.90
36416;DHT22;22447;44.530;18.620;2024-02-26T00:06:37;8.10;99.90
36416;DHT22;22447;44.530;18.620;2024-02-26T00:09:05;8.00;99.90
36416;DHT22;22447;44.530;18.620;2024-02-26T00:11:31;8.10;99.90
36416;DHT22;22447;44.530;18.620;2024-02-26T00:13:57;8.10;99.90
36416;DHT22;22447;44.530;18.620;2024-02-26T00:16:23;8.00;99.90
36416;DHT22;22447;44.530;18.620;2024-02-26T00:18:49;8.00;99.90
36416;DHT22;22447;44.530;18.620;2024-02-26T00:21:15;8.10;99.90
36416;DHT22;22447;44.530;18.620;2024-02-26T00:23:41;8.10;99.90
36416;DHT22;22447;44.530;18.620;2024-02-26T00:26:07;8.10;99.90
36416;DHT22;22447;44.530;18.620;2024-02-26T00:28:33;8.20;99.90
36416;DHT22;22447;44.530;18.620;2024-02-26T00:30:59;8.10;99.90
36416;DHT22;22447;44.530;18.620;2024-02-26T00:33:25;8.00;99.90
36416;DHT22;22447;44.530;18.620;2024-02-26T00:35:51;8.10;99.90
36416;DHT22;22447;44.530;18.620;2024-02-26T00:38:17;8.10;99.90
36416;DHT22;22447;44.530;18.620;2024-02-26T00:40:42;8.10;99.90
36416;DHT22;22447;44.530;18.620;2024-02-26T00:43:08;8.10;99.90
36416;DHT22;22447;44.530;18.620;2024-02-26T00:45:34;8.10;99.90
36416;DHT22;22447;44.530;18.620;2024-02-26T00:48:00;8.10;99.90
36416;DHT22;22447;44.530;18.620;2024-02-26T00:50:33;8.10;99.90
36416;DHT22;22447;44.530;18.620;2024-02-26T00:53:00;8.10;99.90
36416;DHT22;22447;44.530;18.620;2024-02-26T00:55:25;8.00;99.90
36416;DHT22;22447;44.530;18.620;2024-02-26T00:57:51;8.10;99.90
36416;DHT22;22447;44.530;18.620;2024-02-26T01:00:17;8.10;99.90
36416;DHT22;22447;44.530;18.620;2024-02-26T01:02:43;8.10;99.90
36416;DHT22;22447;44.530;18.620;2024-02-26T01:05:13;8.10;99.90
36416;DHT22;22447;44.530;18.620;2024-02-26T01:07:39;8.20;99.90
36416;DHT22;22447;44.530;18.620;2024-02-26T01:10:06;8.30;99.90
36416;DHT22;22447;44.530;18.620;2024-02-26T01:12:33;8.30;99.90
36416;DHT22;22447;44.530;18.620;2024-02-26T01:15:00;8.20;99.90
36416;DHT22;22447;44.530;18.620;2024-02-26T01:17:26;8.10;99.90
36416;DHT22;22447;44.530;18.620;2024-02-26T01:19:52;8.20;99.90
36416;DHT22;22447;44.530;18.620;2024-02-26T01:22:19;8.30;99.90
36416;DHT22;22447;44.530;18.620;2024-02-26T01:24:45;8.20;99.90
36416;DHT22;22447;44.530;18.620;2024-02-26T01:27:11;8.10;99.90
36416;DHT22;22447;44.530;18.620;2024-02-26T01:29:36;8.10;99.90
36416;DHT22;22447;44.530;18.620;2024-02-26T01:32:03;8.10;99.90
36416;DHT22;22447;44.530;18.620;2024-02-26T01:34:30;8.10;99.90
36416;DHT22;22447;44.530;18.620;2024-02-26T01:36:56;8.20;99.90
36416;DHT22;22447;44.530;18.620;2024-02-26T01:39:22;8.10;99.90
36416;DHT22;22447;44.530;18.620;2024-02-26T01:41:48;8.10;99.90
36416;DHT22;22447;44.530;18.620;2024-02-26T01:44:14;8.10;99.90
36416;DHT22;22447;44.530;18.620;2024-02-26T01:46:39;8.10;99.90
36416;DHT22;22447;44.530;18.620;2024-02-26T01:49:06;8.10;99.90
36416;DHT22;22447;44.530;18.620;2024-02-26T01:51:33;8.00;99.90
36416;DHT22;22447;44.530;18.620;2024-02-26T01:54:00;8.10;99.90
36416;DHT22;22447;44.530;18.620;2024-02-26T01:56:27;8.10;99.90
36416;DHT22;22447;44.530;18.620;2024-02-26T01:58:56;8.20;99.90
36416;DHT22;22447;44.530;18.620;2024-02-26T02:01:25;8.20;99.90
36416;DHT22;22447;44.530;18.620;2024-02-26T02:03:54;8.00;99.90
36416;DHT22;22447;44.530;18.620;2024-02-26T02:06:20;8.00;99.90
36416;DHT22;22447;44.530;18.620;2024-02-26T02:08:46;8.00;99.90
36416;DHT22;22447;44.530;18.620;2024-02-26T02:11:12;7.90;99.90
36416;DHT22;22447;44.530;18.620;2024-02-26T02:13:40;8.00;99.90
36416;DHT22;22447;44.530;18.620;2024-02-26T02:16:07;8.00;99.90
36416;DHT22;22447;44.530;18.620;2024-02-26T02:18:33;8.10;99.90
36416;DHT22;22447;44.530;18.620;2024-02-26T02:21:02;8.10;99.90
36416;DHT22;22447;44.530;18.620;2024-02-26T02:23:28;8.20;99.90
36416;DHT22;22447;44.530;18.620;2024-02-26T02:25:55;8.00;99.90
36416;DHT22;22447;44.530;18.620;2024-02-26T02:28:22;7.90;99.90
36416;DHT22;22447;44.530;18.620;2024-02-26T02:30:48;7.80;99.90
36416;DHT22;22447;44.530;18.620;2024-02-26T02:33:15;7.80;99.90
36416;DHT22;22447;44.530;18.620;2024-02-26T02:35:41;7.70;99.90
36416;DHT22;22447;44.530;18.620;2024-02-26T02:38:07;7.90;99.90
36416;DHT22;22447;44.530;18.620;2024-02-26T02:40:33;7.90;99.90
36416;DHT22;22447;44.530;18.620;2024-02-26T02:43:01;7.90;99.90
36416;DHT22;22447;44.530;18.620;2024-02-26T02:45:28;8.00;99.90
36416;DHT22;22447;44.530;18.620;2024-02-26T02:47:54;8.00;99.90
36416;DHT22;22447;44.530;18.620;2024-02-26T02:50:20;8.10;99.90
36416;DHT22;22447;44.530;18.620;2024-02-26T02:52:46;8.00;99.90
36416;DHT22;22447;44.530;18.620;2024-02-26T02:55:12;7.90;99.90
36416;DHT22;22447;44.530;18.620;2024-02-26T02:57:38;7.80;99.90
36416;DHT22;22447;44.530;18.620;2024-02-26T03:00:09;7.90;99.90
36416;DHT22;22447;44.530;18.620;2024-02-26T03:02:35;7.90;99.90
36416;DHT22;22447;44.530;18.620;2024-02-26T03:05:05;7.90;99.90
36416;DHT22;22447;44.530;18.620;2024-02-26T03:07:31;7.70;99.90
36416;DHT22;22447;44.530;18.620;2024-02-26T03:09:57;7.60;99.90
36416;DHT22;22447;44.530;18.620;2024-02-26T03:12:23;7.70;99.90
36416;DHT22;22447;44.530;18.620;2024-02-26T03:14:49;7.70;99.90
36416;DHT22;22447;44.530;18.620;2024-02-26T03:17:14;7.70;99.90
36416;DHT22;22447;44.530;18.620;2024-02-26T03:19:40;7.60;99.90
36416;DHT22;22447;44.530;18.620;2024-02-26T03:22:07;7.60;99.90
36416;DHT22;22447;44.530;18.620;2024-02-26T03:24:33;7.60;99.90
36416;DHT22;22447;44.530;18.620;2024-02-26T03:26:59;7.70;99.90
36416;DHT22;22447;44.530;18.620;2024-02-26T03:29:24;7.60;99.90
36416;DHT22;22447;44.530;18.620;2024-02-26T03:31:50;7.60;99.90
36416;DHT22;22447;44.530;18.620;2024-02-26T03:34:16;7.60;99.90
36416;DHT22;22447;44.530;18.620;2024-02-26T03:36:44;7.60;99.90
36416;DHT22;22447;44.530;18.620;2024-02-26T03:39:10;7.60;99.90
36416;DHT22;22447;44.530;18.620;2024-02-26T03:41:36;7.60;99.90
36416;DHT22;22447;44.530;18.620;2024-02-26T03:44:02;7.60;99.90
36416;DHT22;22447;44.530;18.620;2024-02-26T03:46:28;7.70;99.90
36416;DHT22;22447;44.530;18.620;2024-02-26T03:48:54;7.70;99.90
36416;DHT22;22447;44.530;18.620;2024-02-26T03:51:20;7.70;99.90
36416;DHT22;22447;44.530;18.620;2024-02-26T03:53:46;7.60;99.90
36416;DHT22;22447;44.530;18.620;2024-02-26T03:56:12;7.60;99.90
36416;DHT22;22447;44.530;18.620;2024-02-26T03:58:41;7.50;99.90
36416;DHT22;22447;44.530;18.620;2024-02-26T04:01:08;7.60;99.90
36416;DHT22;22447;44.530;18.620;2024-02-26T04:03:34;7.60;99.90
36416;DHT22;22447;44.530;18.620;2024-02-26T04:06:01;7.60;99.90
36416;DHT22;22447;44.530;18.620;2024-02-26T04:08:27;7.50;99.90
36416;DHT22;22447;44.530;18.620;2024-02-26T04:10:53;7.40;99.90
36416;DHT22;22447;44.530;18.620;2024-02-26T04:13:19;7.40;99.90
36416;DHT22;22447;44.530;18.620;2024-02-26T04:15:45;7.40;99.90
36416;DHT22;22447;44.530;18.620;2024-02-26T04:18:12;7.40;99.90
36416;DHT22;22447;44.530;18.620;2024-02-26T04:20:38;7.40;99.90
36416;DHT22;22447;44.530;18.620;2024-02-26T04:23:04;7.50;99.90
36416;DHT22;22447;44.530;18.620;2024-02-26T04:25:30;7.40;99.90
36416;DHT22;22447;44.530;18.620;2024-02-26T04:27:56;7.40;99.90
36416;DHT22;22447;44.530;18.620;2024-02-26T04:30:21;7.40;99.90
36416;DHT22;22447;44.530;18.620;2024-02-26T04:32:47;7.40;99.90
36416;DHT22;22447;44.530;18.620;2024-02-26T04:35:13;7.30;99.90
36416;DHT22;22447;44.530;18.620;2024-02-26T04:37:39;7.40;99.90
36416;DHT22;22447;44.530;18.620;2024-02-26T04:40:05;7.30;99.90
36416;DHT22;22447;44.530;18.620;2024-02-26T04:42:31;7.20;99.90
36416;DHT22;22447;44.530;18.620;2024-02-26T04:44:57;7.20;99.90
36416;DHT22;22447;44.530;18.620;2024-02-26T04:47:23;7.10;99.90
36416;DHT22;22447;44.530;18.620;2024-02-26T04:49:52;7.10;99.90
36416;DHT22;22447;44.530;18.620;2024-02-26T04:52:18;7.00;99.90
36416;DHT22;22447;44.530;18.620;2024-02-26T04:54:44;7.10;99.90
36416;DHT22;22447;44.530;18.620;2024-02-26T04:57:10;7.10;99.90
36416;DHT22;22447;44.530;18.620;2024-02-26T04:59:36;7.10;99.90
36416;DHT22;22447;44.530;18.620;2024-02-26T05:02:02;7.10;99.90
36416;DHT22;22447;44.530;18.620;2024-02-26T05:04:28;7.00;99.90
36416;DHT22;22447;44.530;18.620;2024-02-26T05:06:54;6.90;99.90
36416;DHT22;22447;44.530;18.620;2024-02-26T05:09:20;6.90;99.90
36416;DHT22;22447;44.530;18.620;2024-02-26T05:11:46;6.90;99.90
36416;DHT22;22447;44.530;18.620;2024-02-26T05:14:11;7.00;99.90
36416;DHT22;22447;44.530;18.620;2024-02-26T05:16:37;7.00;99.90
36416;DHT22;22447;44.530;18.620;2024-02-26T05:19:04;7.00;99.90
36416;DHT22;22447;44.530;18.620;2024-02-26T05:21:29;7.00;99.90
36416;DHT22;22447;44.530;18.620;2024-02-26T05:23:55;7.00;99.90
36416;DHT22;22447;44.530;18.620;2024-02-26T05:26:22;7.00;99.90
36416;DHT22;22447;44.530;18.620;2024-02-26T05:28:48;6.90;99.90
36416;DHT22;22447;44.530;18.620;2024-02-26T05:31:15;6.90;99.90
36416;DHT22;22447;44.530;18.620;2024-02-26T05:33:40;6.90;99.90
36416;DHT22;22447;44.530;18.620;2024-02-26T05:36:07;7.00;99.90
36416;DHT22;22447;44.530;18.620;2024-02-26T05:38:33;7.00;99.90
36416;DHT22;22447;44.530;18.620;2024-02-26T05:40:59;7.00;99.90
36416;DHT22;22447;44.530;18.620;2024-02-26T05:43:26;6.90;99.90
36416;DHT22;22447;44.530;18.620;2024-02-26T05:45:51;6.90;99.90
36416;DHT22;22447;44.530;18.620;2024-02-26T05:48:17;7.00;99.90
36416;DHT22;22447;44.530;18.620;2024-02-26T05:50:45;6.80;99.90
36416;DHT22;22447;44.530;18.620;2024-02-26T05:53:11;7.00;99.90
36416;DHT22;22447;44.530;18.620;2024-02-26T05:55:37;7.00;99.90
36416;DHT22;22447;44.530;18.620;2024-02-26T05:58:03;7.00;99.90
36416;DHT22;22447;44.530;18.620;2024-02-26T06:00:29;7.00;99.90
36416;DHT22;22447;44.530;18.620;2024-02-26T06:02:55;7.10;99.90
36416;DHT22;22447;44.530;18.620;2024-02-26T06:05:21;7.00;99.90
36416;DHT22;22447;44.530;18.620;2024-02-26T06:07:47;6.90;99.90
36416;DHT22;22447;44.530;18.620;2024-02-26T06:10:13;7.00;99.90
36416;DHT22;22447;44.530;18.620;2024-02-26T06:12:41;7.00;99.90
36416;DHT22;22447;44.530;18.620;2024-02-26T06:15:07;7.00;99.90
36416;DHT22;22447;44.530;18.620;2024-02-26T06:17:34;6.90;99.90
36416;DHT22;22447;44.530;18.620;2024-02-26T06:20:00;6.90;99.90
36416;DHT22;22447;44.530;18.620;2024-02-26T06:22:27;6.80;99.90
36416;DHT22;22447;44.530;18.620;2024-02-26T06:24:52;6.70;99.90
36416;DHT22;22447;44.530;18.620;2024-02-26T06:27:18;6.80;99.90
36416;DHT22;22447;44.530;18.620;2024-02-26T06:29:44;6.80;99.90
36416;DHT22;22447;44.530;18.620;2024-02-26T06:32:10;6.70;99.90
36416;DHT22;22447;44.530;18.620;2024-02-26T06:34:36;6.70;99.90
36416;DHT22;22447;44.530;18.620;2024-02-26T06:37:03;6.80;99.90
36416;DHT22;22447;44.530;18.620;2024-02-26T06:39:29;6.90;99.90
36416;DHT22;22447;44.530;18.620;2024-02-26T06:41:55;6.90;99.90
36416;DHT22;22447;44.530;18.620;2024-02-26T06:44:26;7.00;99.90
36416;DHT22;22447;44.530;18.620;2024-02-26T06:46:58;7.00;99.90
36416;DHT22;22447;44.530;18.620;2024-02-26T06:49:24;7.00;99.90
36416;DHT22;22447;44.530;18.620;2024-02-26T06:51:50;6.90;99.90
36416;DHT22;22447;44.530;18.620;2024-02-26T06:54:16;6.90;99.90
36416;DHT22;22447;44.530;18.620;2024-02-26T06:56:42;7.00;99.90
36416;DHT22;22447;44.530;18.620;2024-02-26T06:59:07;7.10;99.90
36416;DHT22;22447;44.530;18.620;2024-02-26T07:01:33;7.10;99.90
36416;DHT22;22447;44.530;18.620;2024-02-26T07:03:59;7.10;99.90
36416;DHT22;22447;44.530;18.620;2024-02-26T07:06:27;7.10;99.90
36416;DHT22;22447;44.530;18.620;2024-02-26T07:08:53;7.20;99.90
36416;DHT22;22447;44.530;18.620;2024-02-26T07:11:19;7.10;99.90
36416;DHT22;22447;44.530;18.620;2024-02-26T07:13:46;7.00;99.90
36416;DHT22;22447;44.530;18.620;2024-02-26T07:16:12;6.90;99.90
36416;DHT22;22447;44.530;18.620;2024-02-26T07:18:39;7.00;99.90
36416;DHT22;22447;44.530;18.620;2024-02-26T07:21:06;7.00;99.90
36416;DHT22;22447;44.530;18.620;2024-02-26T07:23:32;7.00;99.90
36416;DHT22;22447;44.530;18.620;2024-02-26T07:25:59;7.00;99.90
36416;DHT22;22447;44.530;18.620;2024-02-26T07:28:25;7.10;99.90
36416;DHT22;22447;44.530;18.620;2024-02-26T07:30:50;7.20;99.90
36416;DHT22;22447;44.530;18.620;2024-02-26T07:33:16;7.20;99.90
36416;DHT22;22447;44.530;18.620;2024-02-26T07:35:42;7.20;99.90
36416;DHT22;22447;44.530;18.620;2024-02-26T07:38:08;7.20;99.90
36416;DHT22;22447;44.530;18.620;2024-02-26T07:40:34;7.20;99.90
36416;DHT22;22447;44.530;18.620;2024-02-26T07:42:59;7.30;99.90
36416;DHT22;22447;44.530;18.620;2024-02-26T07:45:25;7.40;99.90
36416;DHT22;22447;44.530;18.620;2024-02-26T07:47:51;7.20;99.90
36416;DHT22;22447;44.530;18.620;2024-02-26T07:50:17;7.30;99.90
36416;DHT22;22447;44.530;18.620;2024-02-26T07:52:44;7.40;99.90
36416;DHT22;22447;44.530;18.620;2024-02-26T07:55:10;7.50;99.90
36416;DHT22;22447;44.530;18.620;2024-02-26T07:57:36;7.60;99.90
36416;DHT22;22447;44.530;18.620;2024-02-26T08:00:05;7.50;99.90
36416;DHT22;22447;44.530;18.620;2024-02-26T08:02:35;7.60;99.90
36416;DHT22;22447;44.530;18.620;2024-02-26T08:05:01;7.70;99.90
36416;DHT22;22447;44.530;18.620;2024-02-26T08:07:27;7.70;99.90
36416;DHT22;22447;44.530;18.620;2024-02-26T08:09:54;7.50;99.90
36416;DHT22;22447;44.530;18.620;2024-02-26T08:12:19;7.40;99.90
36416;DHT22;22447;44.530;18.620;2024-02-26T08:14:46;7.60;99.90
36416;DHT22;22447;44.530;18.620;2024-02-26T08:17:11;7.60;99.90
36416;DHT22;22447;44.530;18.620;2024-02-26T08:19:37;7.60;99.90
36416;DHT22;22447;44.530;18.620;2024-02-26T08:22:03;7.80;99.90
36416;DHT22;22447;44.530;18.620;2024-02-26T08:24:29;7.90;99.90
36416;DHT22;22447;44.530;18.620;2024-02-26T08:26:55;8.10;99.90
36416;DHT22;22447;44.530;18.620;2024-02-26T08:29:21;8.30;99.90
36416;DHT22;22447;44.530;18.620;2024-02-26T08:31:47;8.70;99.90
36416;DHT22;22447;44.530;18.620;2024-02-26T08:34:14;9.00;99.90
36416;DHT22;22447;44.530;18.620;2024-02-26T08:36:40;9.30;99.90
36416;DHT22;22447;44.530;18.620;2024-02-26T08:39:06;9.50;99.90
36416;DHT22;22447;44.530;18.620;2024-02-26T08:41:34;9.60;99.90
36416;DHT22;22447;44.530;18.620;2024-02-26T08:43:59;9.50;99.90
36416;DHT22;22447;44.530;18.620;2024-02-26T08:46:25;9.70;99.90
36416;DHT22;22447;44.530;18.620;2024-02-26T08:48:51;9.80;99.90
36416;DHT22;22447;44.530;18.620;2024-02-26T08:51:17;9.80;99.90
36416;DHT22;22447;44.530;18.620;2024-02-26T08:53:43;9.70;99.90
36416;DHT22;22447;44.530;18.620;2024-02-26T08:56:09;9.80;99.90
36416;DHT22;22447;44.530;18.620;2024-02-26T08:58:36;10.10;99.90
36416;DHT22;22447;44.530;18.620;2024-02-26T09:01:02;10.50;99.90
36416;DHT22;22447;44.530;18.620;2024-02-26T09:03:28;11.00;99.90
36416;DHT22;22447;44.530;18.620;2024-02-26T09:05:54;11.40;99.90
36416;DHT22;22447;44.530;18.620;2024-02-26T09:08:20;12.40;99.90
36416;DHT22;22447;44.530;18.620;2024-02-26T09:10:47;13.20;99.90
36416;DHT22;22447;44.530;18.620;2024-02-26T09:13:13;13.80;99.90
36416;DHT22;22447;44.530;18.620;2024-02-26T09:15:39;14.60;99.90
36416;DHT22;22447;44.530;18.620;2024-02-26T09:18:05;15.00;99.90
36416;DHT22;22447;44.530;18.620;2024-02-26T09:20:31;15.30;99.90
36416;DHT22;22447;44.530;18.620;2024-02-26T09:22:56;15.80;99.90
36416;DHT22;22447;44.530;18.620;2024-02-26T09:25:22;16.20;99.90
36416;DHT22;22447;44.530;18.620;2024-02-26T09:27:48;17.30;98.20
36416;DHT22;22447;44.530;18.620;2024-02-26T09:30:14;18.10;97.10
36416;DHT22;22447;44.530;18.620;2024-02-26T09:32:40;17.90;95.00
36416;DHT22;22447;44.530;18.620;2024-02-26T09:35:06;18.10;93.50
36416;DHT22;22447;44.530;18.620;2024-02-26T09:37:33;18.30;93.50
36416;DHT22;22447;44.530;18.620;2024-02-26T09:39:59;18.50;93.30
36416;DHT22;22447;44.530;18.620;2024-02-26T09:42:26;18.90;92.80
36416;DHT22;22447;44.530;18.620;2024-02-26T09:44:55;19.40;91.20
36416;DHT22;22447;44.530;18.620;2024-02-26T09:47:26;19.60;90.40
36416;DHT22;22447;44.530;18.620;2024-02-26T09:49:53;19.60;89.00
36416;DHT22;22447;44.530;18.620;2024-02-26T09:52:21;19.70;87.30
36416;DHT22;22447;44.530;18.620;2024-02-26T09:54:47;20.10;86.60
36416;DHT22;22447;44.530;18.620;2024-02-26T09:57:15;20.40;85.30
36416;DHT22;22447;44.530;18.620;2024-02-26T09:59:43;20.30;84.00
36416;DHT22;22447;44.530;18.620;2024-02-26T10:02:12;20.60;84.10
36416;DHT22;22447;44.530;18.620;2024-02-26T10:04:39;20.90;83.00
36416;DHT22;22447;44.530;18.620;2024-02-26T10:07:10;20.80;78.80
36416;DHT22;22447;44.530;18.620;2024-02-26T10:09:36;21.10;79.70
36416;DHT22;22447;44.530;18.620;2024-02-26T10:12:04;21.40;78.50
36416;DHT22;22447;44.530;18.620;2024-02-26T10:14:30;21.60;77.90
36416;DHT22;22447;44.530;18.620;2024-02-26T10:16:57;21.90;78.30
36416;DHT22;22447;44.530;18.620;2024-02-26T10:19:29;22.00;76.30
36416;DHT22;22447;44.530;18.620;2024-02-26T10:22:00;21.90;73.70
36416;DHT22;22447;44.530;18.620;2024-02-26T10:24:26;20.80;79.00
36416;DHT22;22447;44.530;18.620;2024-02-26T10:26:54;20.80;75.90
36416;DHT22;22447;44.530;18.620;2024-02-26T10:29:20;21.90;76.20
36416;DHT22;22447;44.530;18.620;2024-02-26T10:31:46;22.00;75.50
36416;DHT22;22447;44.530;18.620;2024-02-26T10:34:14;22.10;73.20
36416;DHT22;22447;44.530;18.620;2024-02-26T10:36:40;22.60;72.50
36416;DHT22;22447;44.530;18.620;2024-02-26T10:39:12;22.90;73.30
36416;DHT22;22447;44.530;18.620;2024-02-26T10:41:41;22.70;73.50
36416;DHT22;22447;44.530;18.620;2024-02-26T10:44:09;23.10;69.80
36416;DHT22;22447;44.530;18.620;2024-02-26T10:46:37;23.30;67.50
36416;DHT22;22447;44.530;18.620;2024-02-26T10:49:04;23.10;70.50
36416;DHT22;22447;44.530;18.620;2024-02-26T10:51:32;24.00;68.70
36416;DHT22;22447;44.530;18.620;2024-02-26T10:53:59;24.20;63.40
36416;DHT22;22447;44.530;18.620;2024-02-26T10:56:34;24.20;63.30
36416;DHT22;22447;44.530;18.620;2024-02-26T10:59:00;24.30;61.10
36416;DHT22;22447;44.530;18.620;2024-02-26T11:01:27;24.30;61.30
36416;DHT22;22447;44.530;18.620;2024-02-26T11:03:57;24.50;61.40
36416;DHT22;22447;44.530;18.620;2024-02-26T11:06:23;25.00;61.30
36416;DHT22;22447;44.530;18.620;2024-02-26T11:08:50;25.20;58.30
36416;DHT22;22447;44.530;18.620;2024-02-26T11:11:20;25.30;56.20
36416;DHT22;22447;44.530;18.620;2024-02-26T11:13:48;25.60;54.40
36416;DHT22;22447;44.530;18.620;2024-02-26T11:16:17;25.70;53.40
36416;DHT22;22447;44.530;18.620;2024-02-26T11:18:43;25.70;51.70
36416;DHT22;22447;44.530;18.620;2024-02-26T11:21:18;25.50;49.40
36416;DHT22;22447;44.530;18.620;2024-02-26T11:23:47;25.80;46.50
36416;DHT22;22447;44.530;18.620;2024-02-26T11:26:15;25.50;41.60
36416;DHT22;22447;44.530;18.620;2024-02-26T11:28:43;26.40;43.10
36416;DHT22;22447;44.530;18.620;2024-02-26T11:31:10;26.90;40.00
36416;DHT22;22447;44.530;18.620;2024-02-26T11:33:36;27.50;39.10
36416;DHT22;22447;44.530;18.620;2024-02-26T11:36:12;28.00;36.80
36416;DHT22;22447;44.530;18.620;2024-02-26T11:38:39;28.30;35.30
36416;DHT22;22447;44.530;18.620;2024-02-26T11:41:06;27.50;35.40
36416;DHT22;22447;44.530;18.620;2024-02-26T11:46:30;27.20;37.60
36416;DHT22;22447;44.530;18.620;2024-02-26T11:48:58;26.40;36.50
36416;DHT22;22447;44.530;18.620;2024-02-26T11:51:34;26.60;36.60
36416;DHT22;22447;44.530;18.620;2024-02-26T11:54:00;26.70;34.80
36416;DHT22;22447;44.530;18.620;2024-02-26T11:56:26;27.40;36.00
36416;DHT22;22447;44.530;18.620;2024-02-26T11:59:37;27.00;34.70
36416;DHT22;22447;44.530;18.620;2024-02-26T12:02:03;27.10;34.80
36416;DHT22;22447;44.530;18.620;2024-02-26T12:04:30;27.40;34.00
36416;DHT22;22447;44.530;18.620;2024-02-26T12:06:58;27.20;34.50
36416;DHT22;22447;44.530;18.620;2024-02-26T12:09:39;27.20;34.20
36416;DHT22;22447;44.530;18.620;2024-02-26T12:12:07;27.20;34.90
36416;DHT22;22447;44.530;18.620;2024-02-26T12:14:41;27.10;32.90
36416;DHT22;22447;44.530;18.620;2024-02-26T12:17:23;27.40;33.80
36416;DHT22;22447;44.530;18.620;2024-02-26T12:19:50;27.60;33.20
36416;DHT22;22447;44.530;18.620;2024-02-26T12:22:17;27.70;33.40
36416;DHT22;22447;44.530;18.620;2024-02-26T12:24:43;27.00;32.20
36416;DHT22;22447;44.530;18.620;2024-02-26T12:27:09;27.00;33.70
36416;DHT22;22447;44.530;18.620;2024-02-26T12:29:35;26.50;33.90
36416;DHT22;22447;44.530;18.620;2024-02-26T12:32:02;26.80;30.50
36416;DHT22;22447;44.530;18.620;2024-02-26T12:34:28;26.90;29.40
36416;DHT22;22447;44.530;18.620;2024-02-26T12:36:54;26.90;28.90
36416;DHT22;22447;44.530;18.620;2024-02-26T12:39:21;26.70;29.30
36416;DHT22;22447;44.530;18.620;2024-02-26T12:41:47;26.60;30.20
36416;DHT22;22447;44.530;18.620;2024-02-26T12:44:16;26.60;30.80
36416;DHT22;22447;44.530;18.620;2024-02-26T12:46:42;26.40;31.60
36416;DHT22;22447;44.530;18.620;2024-02-26T12:49:08;26.30;31.00
36416;DHT22;22447;44.530;18.620;2024-02-26T12:51:40;26.40;31.90
36416;DHT22;22447;44.530;18.620;2024-02-26T12:54:07;26.60;34.30
36416;DHT22;22447;44.530;18.620;2024-02-26T12:56:34;26.20;31.90
36416;DHT22;22447;44.530;18.620;2024-02-26T12:59:00;26.50;32.50
36416;DHT22;22447;44.530;18.620;2024-02-26T13:01:28;27.00;29.50
36416;DHT22;22447;44.530;18.620;2024-02-26T13:03:54;27.10;29.50
36416;DHT22;22447;44.530;18.620;2024-02-26T13:06:21;26.90;29.20
36416;DHT22;22447;44.530;18.620;2024-02-26T13:08:47;27.10;30.00
36416;DHT22;22447;44.530;18.620;2024-02-26T13:11:14;27.00;29.00
36416;DHT22;22447;44.530;18.620;2024-02-26T13:13:40;27.00;29.40
36416;DHT22;22447;44.530;18.620;2024-02-26T13:16:14;27.10;31.20
36416;DHT22;22447;44.530;18.620;2024-02-26T13:18:40;27.50;30.00
36416;DHT22;22447;44.530;18.620;2024-02-26T13:21:13;27.50;28.70
36416;DHT22;22447;44.530;18.620;2024-02-26T13:23:41;27.10;27.50
36416;DHT22;22447;44.530;18.620;2024-02-26T13:26:08;26.30;28.90
36416;DHT22;22447;44.530;18.620;2024-02-26T13:28:34;25.60;28.70
36416;DHT22;22447;44.530;18.620;2024-02-26T13:31:00;25.20;30.50
36416;DHT22;22447;44.530;18.620;2024-02-26T13:33:29;24.80;31.60
36416;DHT22;22447;44.530;18.620;2024-02-26T13:35:55;24.70;31.10
36416;DHT22;22447;44.530;18.620;2024-02-26T13:38:22;24.40;31.90
36416;DHT22;22447;44.530;18.620;2024-02-26T13:40:48;23.90;34.10
36416;DHT22;22447;44.530;18.620;2024-02-26T13:43:15;23.50;32.00
36416;DHT22;22447;44.530;18.620;2024-02-26T13:45:40;23.10;33.70
36416;DHT22;22447;44.530;18.620;2024-02-26T13:48:07;23.10;33.80
36416;DHT22;22447;44.530;18.620;2024-02-26T13:50:35;23.40;33.80
36416;DHT22;22447;44.530;18.620;2024-02-26T13:53:02;23.30;35.00
36416;DHT22;22447;44.530;18.620;2024-02-26T13:55:28;23.00;34.80
36416;DHT22;22447;44.530;18.620;2024-02-26T13:57:56;22.50;36.40
36416;DHT22;22447;44.530;18.620;2024-02-26T14:00:23;22.20;35.40
36416;DHT22;22447;44.530;18.620;2024-02-26T14:02:50;22.00;36.40
36416;DHT22;22447;44.530;18.620;2024-02-26T14:05:16;21.90;37.40
36416;DHT22;22447;44.530;18.620;2024-02-26T14:07:42;21.70;39.90
36416;DHT22;22447;44.530;18.620;2024-02-26T14:10:14;21.60;38.90
36416;DHT22;22447;44.530;18.620;2024-02-26T14:12:41;21.30;39.70
36416;DHT22;22447;44.530;18.620;2024-02-26T14:15:08;21.20;39.40
36416;DHT22;22447;44.530;18.620;2024-02-26T14:17:34;21.10;39.10
36416;DHT22;22447;44.530;18.620;2024-02-26T14:19:59;21.00;39.40
36416;DHT22;22447;44.530;18.620;2024-02-26T14:22:25;21.00;41.40
36416;DHT22;22447;44.530;18.620;2024-02-26T14:24:52;20.90;41.70
36416;DHT22;22447;44.530;18.620;2024-02-26T14:27:18;21.00;42.00
36416;DHT22;22447;44.530;18.620;2024-02-26T14:29:48;21.00;39.90
36416;DHT22;22447;44.530;18.620;2024-02-26T14:32:14;21.00;42.10
36416;DHT22;22447;44.530;18.620;2024-02-26T14:34:40;21.00;40.10
36416;DHT22;22447;44.530;18.620;2024-02-26T14:37:05;20.80;39.40
36416;DHT22;22447;44.530;18.620;2024-02-26T14:39:32;20.80;40.00
36416;DHT22;22447;44.530;18.620;2024-02-26T14:41:58;20.80;40.20
36416;DHT22;22447;44.530;18.620;2024-02-26T14:44:25;20.60;41.70
36416;DHT22;22447;44.530;18.620;2024-02-26T14:46:51;20.60;42.50
36416;DHT22;22447;44.530;18.620;2024-02-26T14:49:17;20.50;41.10
36416;DHT22;22447;44.530;18.620;2024-02-26T14:51:43;20.30;41.00
36416;DHT22;22447;44.530;18.620;2024-02-26T14:54:13;20.40;42.30
36416;DHT22;22447;44.530;18.620;2024-02-26T14:56:39;20.40;41.70
36416;DHT22;22447;44.530;18.620;2024-02-26T14:59:05;20.30;42.70
36416;DHT22;22447;44.530;18.620;2024-02-26T15:01:32;20.10;42.70
36416;DHT22;22447;44.530;18.620;2024-02-26T15:03:58;20.00;42.40
36416;DHT22;22447;44.530;18.620;2024-02-26T15:06:25;19.90;44.10
36416;DHT22;22447;44.530;18.620;2024-02-26T15:08:52;19.80;45.80
36416;DHT22;22447;44.530;18.620;2024-02-26T15:11:18;19.80;46.40
36416;DHT22;22447;44.530;18.620;2024-02-26T15:13:44;19.70;49.10
36416;DHT22;22447;44.530;18.620;2024-02-26T15:16:17;19.70;48.80
36416;DHT22;22447;44.530;18.620;2024-02-26T15:18:43;19.60;48.70
36416;DHT22;22447;44.530;18.620;2024-02-26T15:21:09;19.60;49.80
36416;DHT22;22447;44.530;18.620;2024-02-26T15:23:34;19.50;50.40
36416;DHT22;22447;44.530;18.620;2024-02-26T15:26:01;19.40;50.60